Aeroporto :
LOGIN :

Iscrizione | Disclaimer

   EN    FR    IT 

 










Sommario :    VFR   VFR Marginale   IFR   IFR Intensivo   IFR Molto Intensivo
Visibilità : 
Base nubi : 
>= 8 km
>= 3000ft
5 / 8 km
1000 / 3000 ft
1500m / 5 km
500 / 1000 ft
800 / 1500m
200 / 500 ft
< 800m
< 200 ft
Simboli :   Temporali  Nebbia  Neve Forte  Precipitazioni Forti  Vento > 20 kt
SIGMETs :   Varie  Temporali  Ghiacco  Turbolenza  Onda orograficha  Ceneri Vulcaniche






- Altitudine del aeroporto : 297 ft


EGVP - Middle Wallop

ULTIMO METAR :
  • 261820Z 02003KT 9999 FEW048 BKN300 24/07 Q1034 NOSIG RMK BLU BLU

METARs OBSOLETI :
  • 261750Z 01003KT 9999 FEW048 BKN300 24/06 Q1034 NOSIG RMK BLU BLU
  • 261721Z 31003KT 9999 FEW048 BKN300 24/04 Q1034 NOSIG RMK BLU BLU
  • 261650Z 33002KT 9999 FEW045 BKN300 24/03 Q1035 NOSIG RMK BLU BLU
  • 261620Z 32003KT 9999 FEW045 BKN300 24/02 Q1035 NOSIG RMK BLU BLU
  • 261550Z 34003KT CAVOK 24/01 Q1035 NOSIG RMK BLU BLU

TAF TAF EGVP
Valido dal 26 a 18 ore il 27 a 01 ore UTC


261625Z 2618/2701 35005KT 9999 SCT045
ATIS : +44 1980 674 142



MetMap, La meteo Aeronautica in un colpo d'occhio ! - Copyright ORBIFLY Dicembre 2007 - Disclaimer

ORBIFLY MET'MAP TEAM :

Programmazione e sviluppo : Alexandra Zaïnal
Concezione : Baudouin d'Aumeries
Aiuto per la programmazione : Marc-Olivier Méhu
Supporto tecnico e logistico : Manuel Goepfert
Aiuto per la traduzione : Arnaldo La Scala

Contatto : metmap@orbifly.com




FONTI E CREDITI :

   NOAA